createdAt,value
2022-08-09T00:00:04.813Z,70.95
2022-08-09T00:04:10.415Z,71.43
2022-08-09T00:06:34.340Z,72.10
2022-08-09T00:09:38.095Z,72.13
2022-08-09T00:12:40.555Z,72.93
2022-08-09T00:15:59.508Z,73.45
2022-08-09T00:19:09.489Z,73.80
2022-08-09T00:22:12.806Z,73.84
2022-08-09T00:25:23.168Z,73.69
2022-08-09T00:28:35.012Z,72.99
2022-08-09T00:31:58.544Z,73.32
2022-08-09T00:35:00.166Z,72.72
2022-08-09T00:38:04.515Z,72.44
2022-08-09T00:41:08.283Z,72.56
2022-08-09T00:44:24.614Z,72.94
2022-08-09T00:47:28.662Z,72.92
2022-08-09T00:50:38.606Z,73.72
2022-08-09T00:53:40.863Z,73.58
2022-08-09T00:56:43.258Z,73.62
2022-08-09T00:59:52.211Z,73.23
2022-08-09T01:03:08.910Z,73.10
2022-08-09T01:06:17.954Z,72.67
2022-08-09T01:10:04.551Z,72.71
2022-08-09T01:13:13.351Z,73.06
2022-08-09T01:16:24.363Z,73.86
2022-08-09T01:20:05.815Z,74.21
2022-08-09T01:24:02.009Z,74.46
2022-08-09T01:26:54.158Z,74.66
2022-08-09T01:30:01.309Z,74.67
2022-08-09T01:33:10.126Z,75.35
2022-08-09T01:36:19.211Z,75.91
2022-08-09T01:39:25.104Z,75.12
2022-08-09T01:42:35.176Z,75.54
2022-08-09T01:45:46.136Z,76.28
2022-08-09T01:48:52.742Z,75.85
2022-08-09T01:51:58.031Z,75.01
2022-08-09T01:55:11.096Z,75.42
2022-08-09T01:58:14.736Z,76.07
2022-08-09T02:01:19.938Z,76.78
2022-08-09T02:04:26.368Z,77.24
2022-08-09T02:08:41.014Z,77.70
2022-08-09T02:10:56.731Z,78.34
2022-08-09T02:14:07.020Z,78.48
2022-08-09T02:17:59.535Z,78.28
2022-08-09T02:20:40.706Z,78.51
2022-08-09T02:23:49.288Z,78.84
2022-08-09T02:26:58.744Z,78.32
2022-08-09T02:30:02.885Z,77.98
2022-08-09T02:33:07.951Z,77.53
2022-08-09T02:36:22.228Z,77.70
2022-08-09T02:39:41.797Z,77.77
2022-08-09T02:42:51.143Z,78.16
2022-08-09T02:45:54.910Z,78.70
2022-08-09T02:49:02.821Z,79.03
2022-08-09T02:52:07.833Z,79.12
2022-08-09T02:55:20.028Z,79.77
2022-08-09T02:58:35.913Z,79.64
2022-08-09T03:01:43.147Z,80.54
2022-08-09T03:05:06.005Z,81.41
2022-08-09T03:08:10.736Z,80.94
2022-08-09T03:12:06.362Z,81.32
2022-08-09T03:14:42.287Z,82.51
2022-08-09T03:17:45.368Z,81.89
2022-08-09T03:20:58.546Z,81.64
2022-08-09T03:24:04.648Z,81.28
2022-08-09T03:27:09.520Z,81.51
2022-08-09T03:30:29.814Z,81.69
2022-08-09T03:33:54.430Z,81.93
2022-08-09T03:36:59.387Z,82.15
2022-08-09T03:40:02.787Z,81.56
2022-08-09T03:43:07.130Z,81.23
2022-08-09T03:46:19.847Z,81.07
2022-08-09T03:49:25.656Z,81.20
2022-08-09T03:52:37.024Z,80.99
2022-08-09T03:55:42.533Z,81.00
2022-08-09T03:58:45.270Z,81.03
2022-08-09T04:01:50.514Z,81.26
2022-08-09T04:04:53.867Z,81.79
2022-08-09T04:07:57.005Z,82.36
2022-08-09T04:11:01.425Z,82.13
2022-08-09T04:14:37.077Z,82.53
2022-08-09T04:17:27.097Z,82.18
2022-08-09T04:20:32.757Z,82.05
2022-08-09T04:23:35.234Z,82.22
2022-08-09T04:26:38.276Z,82.31
2022-08-09T04:29:40.837Z,81.67
2022-08-09T04:32:52.518Z,81.89
2022-08-09T04:35:56.614Z,82.66
2022-08-09T04:39:05.129Z,82.34
2022-08-09T04:42:09.237Z,82.94
2022-08-09T04:45:12.022Z,82.41
2022-08-09T04:48:15.560Z,82.39
2022-08-09T04:51:17.697Z,81.96
2022-08-09T04:54:22.676Z,81.79
2022-08-09T04:57:26.988Z,81.01
2022-08-09T05:00:49.490Z,81.28
2022-08-09T05:03:58.475Z,80.91
2022-08-09T05:07:01.176Z,80.75
2022-08-09T05:10:04.450Z,80.60
2022-08-09T05:13:06.858Z,81.09
2022-08-09T05:16:14.928Z,80.74
2022-08-09T05:19:24.316Z,80.62
2022-08-09T05:22:35.831Z,80.16
2022-08-09T05:25:51.572Z,80.26
2022-08-09T05:28:53.789Z,80.15
2022-08-09T05:32:00.157Z,79.99
2022-08-09T05:35:02.307Z,79.73
2022-08-09T05:38:04.781Z,79.16
2022-08-09T05:41:12.701Z,79.29
2022-08-09T05:44:16.157Z,79.30
2022-08-09T05:47:27.139Z,80.21
2022-08-09T05:50:50.640Z,79.74
2022-08-09T05:53:57.422Z,79.43
2022-08-09T05:57:00.311Z,78.47
2022-08-09T06:00:05.220Z,78.53
2022-08-09T06:03:20.020Z,80.53
2022-08-09T06:06:23.570Z,81.34
2022-08-09T06:10:01.967Z,81.59
2022-08-09T06:12:57.806Z,82.97
2022-08-09T06:16:07.202Z,80.44
2022-08-09T06:19:09.837Z,81.11
2022-08-09T06:22:15.338Z,80.93
2022-08-09T06:25:18.164Z,81.06
2022-08-09T06:28:27.391Z,80.25
2022-08-09T06:31:39.748Z,78.23
2022-08-09T06:34:58.008Z,76.91
2022-08-09T06:38:05.713Z,76.48
2022-08-09T06:41:18.327Z,74.10
2022-08-09T06:44:21.887Z,73.91
2022-08-09T06:47:24.369Z,73.38
2022-08-09T06:50:26.965Z,70.31
2022-08-09T06:53:38.670Z,67.20
2022-08-09T06:56:45.599Z,67.59
2022-08-09T07:00:49.341Z,66.91
2022-08-09T07:03:11.155Z,67.51
2022-08-09T07:06:13.373Z,68.79
2022-08-09T07:09:54.269Z,70.09
2022-08-09T07:12:40.887Z,68.04
2022-08-09T07:15:53.995Z,68.22
2022-08-09T07:19:06.776Z,67.80
2022-08-09T07:22:10.691Z,66.09
2022-08-09T07:25:15.573Z,64.09
2022-08-09T07:28:18.951Z,60.97
2022-08-09T07:31:21.659Z,62.04
2022-08-09T07:34:26.467Z,62.77
2022-08-09T07:37:28.866Z,61.31
2022-08-09T07:40:46.298Z,59.35
2022-08-09T07:43:56.307Z,58.71
2022-08-09T07:46:59.126Z,56.12
2022-08-09T07:50:07.551Z,54.16
2022-08-09T07:53:11.027Z,53.14
2022-08-09T07:56:26.543Z,52.70
2022-08-09T07:59:45.888Z,53.11
2022-08-09T08:02:52.412Z,52.09
2022-08-09T08:05:58.287Z,50.65
2022-08-09T08:09:07.532Z,49.64
2022-08-09T08:12:28.288Z,49.05
2022-08-09T08:15:35.340Z,48.83
2022-08-09T08:18:40.325Z,46.42
2022-08-09T08:21:52.662Z,46.58
2022-08-09T08:24:58.201Z,45.34
2022-08-09T08:28:00.349Z,44.33
2022-08-09T08:31:14.272Z,43.73
2022-08-09T08:34:20.944Z,43.59
2022-08-09T08:37:41.689Z,42.19
2022-08-09T08:40:54.114Z,41.35
2022-08-09T08:44:03.540Z,41.39
2022-08-09T08:47:13.008Z,40.07
2022-08-09T08:50:18.597Z,38.51
2022-08-09T08:53:22.174Z,39.06
2022-08-09T08:56:28.113Z,38.51
2022-08-09T08:59:44.467Z,37.83
2022-08-09T09:02:52.508Z,37.64
2022-08-09T09:06:01.234Z,38.03
2022-08-09T09:09:20.842Z,36.26
2022-08-09T09:12:34.116Z,35.65
2022-08-09T09:15:38.667Z,35.49
2022-08-09T09:18:48.027Z,35.54
2022-08-09T09:21:58.051Z,34.94
2022-08-09T09:26:04.330Z,35.33
2022-08-09T09:29:02.471Z,34.84
2022-08-09T09:32:15.181Z,34.23
2022-08-09T09:35:33.195Z,34.19
2022-08-09T09:38:59.218Z,34.31
2022-08-09T09:42:11.887Z,34.76
2022-08-09T09:45:56.970Z,34.70
2022-08-09T09:49:06.366Z,34.94
2022-08-09T09:52:33.608Z,34.71
2022-08-09T09:55:33.579Z,35.07
2022-08-09T09:58:47.498Z,34.46
2022-08-09T10:02:02.076Z,35.03
2022-08-09T10:05:09.597Z,33.68
2022-08-09T10:08:27.949Z,34.48
2022-08-09T10:11:59.322Z,34.15
2022-08-09T10:15:17.559Z,34.61
2022-08-09T10:18:28.164Z,34.36
2022-08-09T10:21:31.826Z,34.16
2022-08-09T10:24:36.367Z,33.72
2022-08-09T10:27:56.292Z,33.50
2022-08-09T10:34:33.856Z,33.95
2022-08-09T10:37:39.073Z,33.30
2022-08-09T10:40:44.693Z,33.12
2022-08-09T10:43:59.678Z,33.39
2022-08-09T10:48:20.244Z,33.44
2022-08-09T10:51:09.978Z,32.24
2022-08-09T10:54:13.853Z,33.18
2022-08-09T10:57:16.673Z,33.76
2022-08-09T11:01:11.163Z,33.08
2022-08-09T11:04:27.916Z,33.30
2022-08-09T11:07:58.237Z,33.24
2022-08-09T11:11:00.590Z,34.34
2022-08-09T11:14:51.185Z,35.56
2022-08-09T11:18:03.139Z,33.40
2022-08-09T11:21:07.757Z,33.88
2022-08-09T11:24:10.567Z,33.21
2022-08-09T11:28:02.603Z,33.15
2022-08-09T11:31:06.811Z,32.38
2022-08-09T11:34:22.540Z,32.58
2022-08-09T11:37:40.640Z,32.61
2022-08-09T11:40:44.066Z,33.88
2022-08-09T11:43:48.975Z,34.41
2022-08-09T11:46:57.295Z,35.01
2022-08-09T11:50:54.083Z,35.63
2022-08-09T11:53:58.999Z,36.10
2022-08-09T11:56:49.800Z,36.19
2022-08-09T11:59:53.123Z,37.14
2022-08-09T12:02:57.775Z,36.68
2022-08-09T12:06:09.249Z,37.41
2022-08-09T12:09:17.595Z,37.69
2022-08-09T12:12:29.058Z,38.37
2022-08-09T12:15:49.617Z,38.53
2022-08-09T12:18:53.848Z,38.76
2022-08-09T12:22:01.634Z,38.53
2022-08-09T12:25:17.642Z,38.53
2022-08-09T12:29:14.401Z,38.99
2022-08-09T12:32:07.890Z,38.53
2022-08-09T12:35:10.814Z,38.61
2022-08-09T12:38:37.429Z,38.58
2022-08-09T12:41:40.886Z,38.42
2022-08-09T12:44:46.449Z,39.06
2022-08-09T12:47:54.763Z,38.80
2022-08-09T12:50:59.381Z,37.83
2022-08-09T12:54:04.309Z,38.37
2022-08-09T12:57:09.173Z,39.18
2022-08-09T13:00:13.038Z,38.74
2022-08-09T13:03:28.513Z,39.42
2022-08-09T13:06:49.557Z,38.96
2022-08-09T13:10:02.510Z,38.98
2022-08-09T13:13:09.644Z,39.42
2022-08-09T13:16:15.801Z,39.74
2022-08-09T13:20:10.070Z,40.05
2022-08-09T13:23:16.427Z,40.46
2022-08-09T13:26:36.993Z,40.30
2022-08-09T13:30:03.795Z,40.23
2022-08-09T13:33:23.907Z,40.33
2022-08-09T13:36:40.188Z,40.41
2022-08-09T13:41:46.791Z,40.29
2022-08-09T13:43:09.997Z,40.50
2022-08-09T13:47:17.794Z,40.29
2022-08-09T13:49:58.169Z,40.03
2022-08-09T13:53:02.571Z,40.33
2022-08-09T13:56:06.174Z,39.79
2022-08-09T13:59:14.005Z,39.00
2022-08-09T14:02:25.854Z,39.24
2022-08-09T14:06:00.333Z,39.34
2022-08-09T14:08:51.554Z,39.51
2022-08-09T14:11:56.683Z,39.93
2022-08-09T14:14:59.783Z,38.25
2022-08-09T14:18:16.778Z,38.34
2022-08-09T14:21:24.174Z,38.19
2022-08-09T14:24:32.691Z,38.09
2022-08-09T14:27:37.013Z,38.52
2022-08-09T14:30:58.321Z,38.76
2022-08-09T14:34:00.423Z,39.36
2022-08-09T14:37:07.992Z,39.97
2022-08-09T14:40:10.781Z,39.50
2022-08-09T14:43:15.919Z,40.03
2022-08-09T14:46:55.532Z,39.32
2022-08-09T14:50:01.433Z,39.42
2022-08-09T14:53:11.705Z,39.16
2022-08-09T14:56:14.741Z,39.52
2022-08-09T14:59:17.235Z,39.32
2022-08-09T15:02:20.421Z,39.00
2022-08-09T15:05:23.163Z,39.50
2022-08-09T15:08:25.859Z,39.20
2022-08-09T15:11:32.911Z,38.98
2022-08-09T15:14:38.718Z,38.91
2022-08-09T15:17:42.667Z,38.38
2022-08-09T15:22:00.593Z,38.44
2022-08-09T15:24:17.574Z,38.03
2022-08-09T15:27:22.072Z,38.59
2022-08-09T15:30:56.878Z,38.78
2022-08-09T15:34:32.056Z,39.31
2022-08-09T15:37:36.904Z,39.32
2022-08-09T15:40:43.802Z,39.05
2022-08-09T15:43:46.325Z,39.27
2022-08-09T15:46:49.043Z,39.07
2022-08-09T15:50:04.512Z,39.05
2022-08-09T15:53:18.734Z,39.24
2022-08-09T15:56:30.906Z,39.19
2022-08-09T15:59:37.074Z,39.32
2022-08-09T16:02:39.965Z,39.04
2022-08-09T16:05:53.152Z,39.26
2022-08-09T16:08:56.737Z,38.96
2022-08-09T16:12:04.013Z,39.21
2022-08-09T16:16:10.044Z,39.60
2022-08-09T16:18:30.811Z,39.68
2022-08-09T16:21:34.101Z,39.65
2022-08-09T16:24:37.517Z,39.36
2022-08-09T16:27:51.385Z,39.66
2022-08-09T16:30:58.971Z,39.56
2022-08-09T16:34:03.895Z,40.02
2022-08-09T16:37:07.582Z,39.55
2022-08-09T16:40:13.090Z,39.64
2022-08-09T16:43:15.994Z,39.09
2022-08-09T16:46:21.441Z,39.50
2022-08-09T16:50:26.840Z,39.39
2022-08-09T16:52:46.294Z,39.09
2022-08-09T16:56:00.344Z,39.90
2022-08-09T16:59:06.675Z,40.41
2022-08-09T17:02:13.760Z,40.85
2022-08-09T17:05:20.181Z,41.12
2022-08-09T17:08:43.400Z,40.96
2022-08-09T17:11:44.873Z,41.61
2022-08-09T17:14:58.275Z,41.27
2022-08-09T17:18:01.120Z,41.60
2022-08-09T17:21:04.096Z,41.55
2022-08-09T17:24:21.440Z,41.84
2022-08-09T17:27:29.203Z,41.77
2022-08-09T17:30:32.485Z,42.03
2022-08-09T17:33:35.792Z,41.97
2022-08-09T17:36:40.131Z,42.02
2022-08-09T17:39:56.100Z,42.47
2022-08-09T17:42:59.220Z,42.55
2022-08-09T17:46:06.081Z,42.84
2022-08-09T17:49:09.609Z,42.73
2022-08-09T17:52:22.192Z,43.98
2022-08-09T17:55:24.693Z,43.54
2022-08-09T17:58:47.241Z,43.06
2022-08-09T18:02:06.824Z,43.37
2022-08-09T18:05:13.022Z,44.11
2022-08-09T18:08:15.472Z,43.11
2022-08-09T18:11:23.707Z,43.67
2022-08-09T18:14:26.683Z,42.94
2022-08-09T18:18:02.521Z,43.53
2022-08-09T18:21:00.796Z,43.44
2022-08-09T18:24:14.431Z,43.62
2022-08-09T18:27:49.149Z,44.08
2022-08-09T18:30:49.077Z,44.00
2022-08-09T18:33:53.216Z,44.41
2022-08-09T18:36:56.292Z,43.75
2022-08-09T18:39:58.599Z,43.70
2022-08-09T18:43:01.040Z,43.95
2022-08-09T18:46:47.836Z,43.85
2022-08-09T18:49:27.532Z,44.17
2022-08-09T18:52:35.539Z,44.00
2022-08-09T18:55:56.517Z,43.51
2022-08-09T18:59:01.771Z,42.40
2022-08-09T19:02:04.408Z,39.55
2022-08-09T19:05:20.735Z,38.82
2022-08-09T19:08:31.582Z,37.99
2022-08-09T19:11:37.725Z,37.97
2022-08-09T19:14:43.385Z,37.59
2022-08-09T19:17:54.344Z,37.94
2022-08-09T19:20:59.067Z,37.79
2022-08-09T19:24:33.573Z,37.55
2022-08-09T19:27:28.481Z,38.49
2022-08-09T19:30:32.327Z,38.69
2022-08-09T19:33:35.206Z,38.06
2022-08-09T19:36:37.339Z,38.25
2022-08-09T19:40:03.628Z,39.11
2022-08-09T19:43:10.426Z,39.28
2022-08-09T19:46:34.220Z,37.80
2022-08-09T19:50:07.437Z,37.04
2022-08-09T19:53:04.488Z,36.75
2022-08-09T19:56:07.078Z,36.36
2022-08-09T19:59:40.465Z,36.94
2022-08-09T20:04:11.717Z,36.84
2022-08-09T20:06:04.835Z,36.98
2022-08-09T20:09:44.494Z,37.20
2022-08-09T20:12:47.605Z,36.81
2022-08-09T20:16:35.459Z,36.88
2022-08-09T20:19:48.925Z,37.07
2022-08-09T20:22:37.876Z,37.14
2022-08-09T20:25:52.315Z,37.47
2022-08-09T20:28:55.126Z,38.01
2022-08-09T20:32:30.972Z,38.44
2022-08-09T20:35:21.582Z,37.89
2022-08-09T20:38:38.779Z,37.83
2022-08-09T20:41:48.877Z,38.27
2022-08-09T20:45:04.629Z,38.34
2022-08-09T20:48:13.835Z,38.32
2022-08-09T20:51:24.584Z,38.42
2022-08-09T20:54:26.768Z,37.98
2022-08-09T20:57:32.039Z,37.97
2022-08-09T21:00:35.558Z,36.94
2022-08-09T21:04:07.843Z,36.68
2022-08-09T21:07:12.802Z,36.43
2022-08-09T21:10:16.183Z,36.53
2022-08-09T21:13:18.314Z,36.93
2022-08-09T21:16:21.361Z,36.66
2022-08-09T21:20:17.285Z,36.84
2022-08-09T21:22:55.105Z,36.54
2022-08-09T21:25:59.693Z,36.64
2022-08-09T21:29:11.994Z,36.68
2022-08-09T21:32:18.728Z,36.73
2022-08-09T21:35:21.930Z,37.08
2022-08-09T21:38:31.208Z,36.50
2022-08-09T21:42:04.352Z,36.79
2022-08-09T21:44:57.451Z,36.45
2022-08-09T21:47:59.961Z,36.49
2022-08-09T21:51:02.099Z,36.37
2022-08-09T21:54:05.058Z,36.45
2022-08-09T21:57:07.256Z,36.88
2022-08-09T22:00:33.374Z,36.72
2022-08-09T22:03:36.775Z,37.01
2022-08-09T22:06:59.301Z,37.38
2022-08-09T22:10:06.594Z,37.84
2022-08-09T22:13:11.496Z,37.72
2022-08-09T22:16:14.921Z,37.70
2022-08-09T22:19:23.963Z,37.81
2022-08-09T22:22:40.238Z,37.68
2022-08-09T22:26:06.603Z,37.34
2022-08-09T22:29:09.041Z,37.41
2022-08-09T22:32:29.281Z,38.30
2022-08-09T22:36:00.878Z,38.12
2022-08-09T22:38:55.030Z,38.22
2022-08-09T22:41:57.466Z,38.32
2022-08-09T22:48:14.808Z,38.19
2022-08-09T22:48:35.537Z,38.32
2022-08-09T22:51:43.534Z,38.38
2022-08-09T22:54:52.175Z,38.45
2022-08-09T22:57:59.460Z,38.30
2022-08-09T23:01:04.791Z,38.39
2022-08-09T23:04:08.143Z,38.48
2022-08-09T23:08:16.328Z,38.73
2022-08-09T23:10:52.666Z,39.02
2022-08-09T23:13:55.068Z,39.26
2022-08-09T23:16:57.260Z,39.58
2022-08-09T23:20:00.965Z,39.62
2022-08-09T23:23:10.336Z,39.83
2022-08-09T23:26:12.746Z,39.80
2022-08-09T23:29:14.873Z,40.22
2022-08-09T23:32:17.397Z,40.33
2022-08-09T23:35:19.652Z,40.88
2022-08-09T23:38:22.284Z,40.69
2022-08-09T23:41:28.898Z,40.67
2022-08-09T23:44:31.842Z,40.97
2022-08-09T23:47:33.957Z,41.00
2022-08-09T23:50:36.695Z,40.92
2022-08-09T23:53:38.835Z,40.93
2022-08-09T23:56:54.131Z,41.51
